Time;durP1;ratioP1;P1;durP2;ratioP2;P2;SDS_P1;SDS_P2;PMS_P1;PMS_P2;Temp;Humidity;BMP_temperature;BMP_pressure;BME280_temperature;BME280_humidity;BME280_pressure;Samples;Min_cycle;Max_cycle;Signal;HPM_P1;HPM_P2
2021/10/06 00:00:44;;;;;;;6.28;1.50;;;;;;;10.10;99.11;98370.16;5071907;28;20029;-67
2021/10/06 00:03:09;;;;;;;3.63;1.05;;;;;;;10.17;98.49;98371.75;5063643;28;20338;-67
2021/10/06 00:05:35;;;;;;;9.02;1.77;;;;;;;10.19;98.53;98369.97;5063825;28;20204;-67
2021/10/06 00:08:00;;;;;;;5.55;1.33;;;;;;;10.14;98.59;98377.09;5063781;28;20028;-67
2021/10/06 00:10:26;;;;;;;5.20;1.40;;;;;;;10.17;98.91;98382.28;5071864;28;20020;-67
2021/10/06 00:12:52;;;;;;;4.97;1.40;;;;;;;10.11;98.30;98377.16;5063744;28;20044;-67
2021/10/06 00:15:17;;;;;;;6.40;1.52;;;;;;;10.14;98.35;98387.59;5063993;28;20021;-67
2021/10/06 00:17:43;;;;;;;4.03;1.55;;;;;;;10.07;98.79;98389.50;5067818;28;20088;-67
2021/10/06 00:20:11;;;;;;;4.38;1.42;;;;;;;10.07;98.64;98396.53;5067788;28;20029;-67
2021/10/06 00:22:37;;;;;;;5.70;1.35;;;;;;;10.01;98.40;98399.25;5072137;28;20016;-67
2021/10/06 00:25:03;;;;;;;4.40;1.52;;;;;;;9.98;98.42;98396.69;5087170;28;20020;-67
2021/10/06 00:27:28;;;;;;;6.00;1.33;;;;;;;9.98;98.57;98394.06;5086847;28;20029;-67
2021/10/06 00:29:54;;;;;;;8.75;1.90;;;;;;;10.03;98.27;98395.69;5087085;28;20027;-67
2021/10/06 00:32:19;;;;;;;7.03;1.75;;;;;;;9.97;98.58;98395.81;5069634;28;20306;-67
2021/10/06 00:34:45;;;;;;;11.18;1.40;;;;;;;9.96;98.42;98399.34;5067441;28;20024;-67
2021/10/06 00:37:10;;;;;;;5.35;1.70;;;;;;;10.14;98.78;98398.13;5067418;28;20017;-67
2021/10/06 00:39:35;;;;;;;5.60;1.55;;;;;;;10.23;99.36;98403.19;5077417;28;20032;-67
2021/10/06 00:42:01;;;;;;;5.25;1.70;;;;;;;10.31;99.54;98402.13;5072160;28;20021;-67
2021/10/06 00:44:35;;;;;;;10.38;1.60;;;;;;;10.39;99.59;98409.84;5083370;28;20058;-67
2021/10/06 00:47:00;;;;;;;6.53;1.40;;;;;;;10.48;99.48;98420.16;5086981;28;20066;-67
2021/10/06 00:49:26;;;;;;;9.27;1.77;;;;;;;10.53;99.06;98418.28;5087232;28;20020;-67
2021/10/06 00:51:51;;;;;;;7.90;2.30;;;;;;;10.59;99.27;98428.69;5087146;28;20069;-67
2021/10/06 00:54:17;;;;;;;12.25;1.83;;;;;;;10.54;99.03;98430.56;5087038;28;20027;-67
2021/10/06 00:56:42;;;;;;;11.20;1.75;;;;;;;10.61;98.50;98433.03;5085595;28;20024;-67
2021/10/06 00:59:08;;;;;;;12.38;2.42;;;;;;;10.70;98.21;98437.22;5080159;28;20311;-67
2021/10/06 01:01:34;;;;;;;7.80;1.58;;;;;;;10.74;98.22;98444.13;5067192;28;20312;-67
2021/10/06 01:04:04;;;;;;;7.55;1.60;;;;;;;10.74;98.01;98439.75;5069412;28;20043;-67
2021/10/06 01:06:31;;;;;;;12.52;1.90;;;;;;;10.86;98.05;98449.13;5085555;28;20338;-67
2021/10/06 01:09:00;;;;;;;10.52;2.38;;;;;;;10.86;97.92;98449.13;5086065;28;20308;-67
2021/10/06 01:11:27;;;;;;;7.18;1.50;;;;;;;10.93;97.96;98455.97;5084945;28;20030;-67
2021/10/06 01:13:54;;;;;;;9.43;1.60;;;;;;;10.94;97.60;98448.03;5084813;28;20016;-67
2021/10/06 01:16:21;;;;;;;7.40;1.85;;;;;;;11.05;98.23;98450.41;5075576;28;20067;-67
2021/10/06 01:18:46;;;;;;;5.00;1.48;;;;;;;10.97;97.63;98462.03;5066650;28;20076;-68
2021/10/06 01:21:16;;;;;;;8.10;1.83;;;;;;;11.04;97.31;98463.63;5065435;28;20082;-68
2021/10/06 01:23:47;;;;;;;10.07;2.47;;;;;;;11.07;97.13;98464.38;5081822;28;20032;-68
2021/10/06 01:26:18;;;;;;;9.00;1.77;;;;;;;10.99;97.22;98461.09;5066323;28;20209;-68
2021/10/06 01:28:45;;;;;;;9.60;1.58;;;;;;;11.05;97.33;98470.59;5066518;28;20017;-68
2021/10/06 01:31:11;;;;;;;8.48;1.45;;;;;;;11.02;97.14;98474.19;5066414;28;20052;-68
2021/10/06 01:33:37;;;;;;;7.88;2.08;;;;;;;11.08;97.20;98481.94;5082050;28;20298;-68
2021/10/06 01:36:02;;;;;;;13.43;3.00;;;;;;;11.09;97.14;98472.25;5085843;28;20039;-67
2021/10/06 01:38:28;;;;;;;5.10;1.80;;;;;;;11.10;97.11;98474.00;5077378;28;20043;-67
2021/10/06 01:40:53;;;;;;;7.28;1.75;;;;;;;11.21;96.61;98475.47;5085512;28;20131;-67
2021/10/06 01:43:18;;;;;;;9.25;2.20;;;;;;;11.25;96.62;98469.22;5080439;28;20021;-67
2021/10/06 01:45:44;;;;;;;7.13;2.08;;;;;;;11.21;96.44;98472.84;5065018;28;20046;-67
2021/10/06 01:48:12;;;;;;;7.80;1.98;;;;;;;11.22;96.63;98471.94;5066023;28;20104;-67
2021/10/06 01:50:42;;;;;;;11.90;2.28;;;;;;;11.20;96.96;98471.09;5085575;28;20016;-67
2021/10/06 01:53:13;;;;;;;14.48;2.92;;;;;;;11.25;97.04;98479.75;5085293;28;20111;-67
2021/10/06 01:55:39;;;;;;;7.70;3.38;;;;;;;11.29;96.61;98473.50;5084270;28;20020;-67
2021/10/06 01:58:08;;;;;;;8.27;2.33;;;;;;;11.27;96.37;98475.34;5084879;28;20020;-67
2021/10/06 02:00:34;;;;;;;13.93;3.00;;;;;;;11.31;95.96;98479.63;5077307;28;20374;-67
2021/10/06 02:03:00;;;;;;;13.98;3.55;;;;;;;11.24;96.27;98483.31;5085267;28;20054;-67
2021/10/06 02:05:26;;;;;;;12.32;3.05;;;;;;;11.29;96.56;98481.41;5075024;28;20075;-67
2021/10/06 02:07:52;;;;;;;11.10;3.38;;;;;;;11.33;96.72;98488.31;5076547;28;20052;-67
2021/10/06 02:10:18;;;;;;;9.02;3.35;;;;;;;11.24;96.43;98479.78;5065711;28;20024;-67
2021/10/06 02:12:43;;;;;;;7.80;2.70;;;;;;;11.23;96.65;98484.19;5081970;28;20028;-67
2021/10/06 02:15:09;;;;;;;13.65;3.25;;;;;;;11.34;96.69;98484.81;5085034;28;20016;-67
2021/10/06 02:17:35;;;;;;;8.23;3.03;;;;;;;11.29;95.93;98475.28;5085075;28;20021;-67
2021/10/06 02:20:00;;;;;;;11.73;3.28;;;;;;;11.23;96.03;98481.56;5076487;28;20207;-67
2021/10/06 02:22:27;;;;;;;11.23;3.72;;;;;;;11.30;95.88;98488.44;5069552;28;20020;-67
2021/10/06 02:24:52;;;;;;;15.57;3.92;;;;;;;11.21;96.71;98488.66;5065454;28;20051;-67
2021/10/06 02:27:18;;;;;;;15.10;3.72;;;;;;;11.28;96.24;98487.59;5065384;28;20029;-67
2021/10/06 02:29:43;;;;;;;7.88;3.13;;;;;;;11.33;96.37;98488.31;5081720;28;20076;-67
2021/10/06 02:32:09;;;;;;;13.40;4.07;;;;;;;11.29;96.46;98491.09;5084755;28;20024;-67
2021/10/06 02:34:34;;;;;;;5.68;3.70;;;;;;;11.18;96.32;98491.34;5084358;28;20071;-67
2021/10/06 02:37:00;;;;;;;18.30;3.90;;;;;;;11.21;96.39;98496.56;5082371;28;20030;-67
2021/10/06 02:39:26;;;;;;;8.68;3.20;;;;;;;11.18;96.62;98494.00;5078270;28;20055;-67
2021/10/06 02:41:51;;;;;;;12.40;3.22;;;;;;;11.12;96.12;98498.53;5084832;28;20297;-67
2021/10/06 02:44:17;;;;;;;9.52;3.55;;;;;;;11.26;96.37;98492.03;5084277;28;20021;-67
2021/10/06 02:46:42;;;;;;;17.90;4.03;;;;;;;11.25;96.38;98494.69;5079401;28;20021;-67
2021/10/06 02:49:08;;;;;;;12.25;3.63;;;;;;;11.29;96.28;98499.84;5068519;28;20063;-67
2021/10/06 02:51:34;;;;;;;10.90;3.55;;;;;;;11.32;95.70;98496.31;5063968;28;20220;-67
2021/10/06 02:53:59;;;;;;;12.55;3.65;;;;;;;11.28;95.68;98490.22;5070350;28;20024;-67
2021/10/06 02:56:25;;;;;;;10.75;3.50;;;;;;;11.25;95.06;98497.31;5084028;28;20062;-67
2021/10/06 02:58:50;;;;;;;13.55;3.55;;;;;;;11.39;95.90;98498.72;5071675;28;20025;-67
2021/10/06 03:01:15;;;;;;;11.93;3.42;;;;;;;11.28;94.83;98495.50;5070897;28;20091;-67
2021/10/06 03:03:41;;;;;;;9.38;3.58;;;;;;;11.22;95.83;98503.53;5082487;28;20236;-67
2021/10/06 03:06:07;;;;;;;10.50;3.58;;;;;;;11.19;95.97;98495.72;5084073;28;20073;-67
2021/10/06 03:08:32;;;;;;;9.63;3.03;;;;;;;11.13;96.30;98495.84;5073938;28;20063;-67
2021/10/06 03:10:59;;;;;;;16.55;3.90;;;;;;;11.13;96.41;98501.13;5064170;28;20045;-67
2021/10/06 03:13:24;;;;;;;14.40;3.38;;;;;;;11.21;96.56;98504.47;5069413;28;20027;-67
2021/10/06 03:15:49;;;;;;;12.43;3.20;;;;;;;11.21;96.09;98503.56;5083622;28;20025;-67
2021/10/06 03:18:15;;;;;;;7.72;2.50;;;;;;;11.20;95.73;98507.97;5071718;28;20062;-67
2021/10/06 03:20:41;;;;;;;16.15;2.90;;;;;;;11.20;95.69;98518.50;5064356;28;20048;-67
2021/10/06 03:23:07;;;;;;;11.70;2.60;;;;;;;11.16;95.45;98516.84;5064345;28;20044;-67
2021/10/06 03:25:33;;;;;;;16.42;3.75;;;;;;;11.13;96.06;98524.81;5064343;28;20017;-67
2021/10/06 03:27:58;;;;;;;10.60;3.13;;;;;;;11.09;96.29;98530.19;5065462;28;20024;-67
2021/10/06 03:30:24;;;;;;;6.63;2.38;;;;;;;11.07;96.32;98522.34;5064224;28;20071;-67
2021/10/06 03:32:49;;;;;;;13.88;2.67;;;;;;;11.15;95.96;98536.22;5064188;28;20215;-67
2021/10/06 03:35:18;;;;;;;18.98;3.55;;;;;;;11.11;95.70;98534.56;5064130;28;20343;-67
2021/10/06 03:37:45;;;;;;;14.00;4.68;;;;;;;11.14;96.09;98536.25;5072158;28;20080;-67
2021/10/06 03:40:10;;;;;;;11.85;2.88;;;;;;;11.10;95.70;98540.69;5062981;28;20023;-67
2021/10/06 03:42:36;;;;;;;11.48;2.83;;;;;;;11.07;96.06;98535.50;5066053;28;20224;-67
2021/10/06 03:45:03;;;;;;;13.98;2.97;;;;;;;11.15;95.92;98541.47;5083573;28;20027;-67
2021/10/06 03:47:29;;;;;;;10.10;2.47;;;;;;;11.15;95.70;98549.38;5083739;28;20083;-69
2021/10/06 03:49:54;;;;;;;13.30;2.90;;;;;;;11.07;95.74;98543.41;5084104;28;20220;-67
2021/10/06 03:52:20;;;;;;;7.57;2.63;;;;;;;11.11;95.97;98555.63;5073273;28;20020;-67
2021/10/06 03:54:45;;;;;;;17.20;3.08;;;;;;;11.09;95.86;98552.16;5066951;28;20197;-67
2021/10/06 03:57:10;;;;;;;14.85;3.88;;;;;;;11.04;95.69;98548.75;5079825;28;20083;-67
2021/10/06 03:59:36;;;;;;;13.23;3.03;;;;;;;11.02;96.19;98539.16;5065524;28;20021;-67
2021/10/06 04:02:01;;;;;;;12.40;2.85;;;;;;;11.00;96.34;98547.09;5062656;28;20077;-67
2021/10/06 04:04:27;;;;;;;11.75;2.38;;;;;;;11.04;96.55;98551.38;5062206;28;20094;-67
2021/10/06 04:06:52;;;;;;;15.05;3.83;;;;;;;11.02;96.69;98556.66;5063949;28;20021;-67
2021/10/06 04:09:17;;;;;;;13.35;3.10;;;;;;;11.06;96.56;98562.75;5066127;28;20021;-67
2021/10/06 04:11:43;;;;;;;22.08;3.33;;;;;;;11.02;96.17;98555.81;5065114;28;20327;-67
2021/10/06 04:14:08;;;;;;;7.53;2.53;;;;;;;11.02;96.74;98563.72;5064997;28;20036;-67
2021/10/06 04:16:33;;;;;;;17.00;3.42;;;;;;;11.07;96.74;98569.75;5068641;28;20054;-67
2021/10/06 04:18:59;;;;;;;11.20;3.15;;;;;;;11.02;96.70;98572.47;5079156;28;20315;-67
2021/10/06 04:21:24;;;;;;;12.45;2.80;;;;;;;10.99;97.12;98566.44;5072614;28;20334;-67
2021/10/06 04:23:50;;;;;;;12.18;2.80;;;;;;;11.00;96.87;98573.41;5071785;28;20027;-67
2021/10/06 04:26:15;;;;;;;8.70;2.92;;;;;;;11.02;96.64;98576.03;5074679;28;20021;-67
2021/10/06 04:28:40;;;;;;;17.00;3.10;;;;;;;10.93;96.79;98577.97;5064953;28;20020;-67
2021/10/06 04:31:06;;;;;;;13.35;3.22;;;;;;;10.94;96.59;98573.53;5065713;28;20084;-67
2021/10/06 04:33:31;;;;;;;17.48;3.17;;;;;;;11.01;96.42;98569.88;5064935;28;20313;-67
2021/10/06 04:35:57;;;;;;;15.73;3.53;;;;;;;11.06;95.95;98577.69;5079264;28;20021;-67
2021/10/06 04:38:22;;;;;;;9.35;3.20;;;;;;;11.12;94.98;98578.41;5080397;28;20064;-67
2021/10/06 04:40:48;;;;;;;11.25;3.08;;;;;;;11.11;94.71;98574.06;5063431;28;20044;-67
2021/10/06 04:43:13;;;;;;;16.65;3.03;;;;;;;11.11;94.04;98576.69;5063431;28;20029;-67
2021/10/06 04:45:39;;;;;;;18.77;4.15;;;;;;;11.07;94.14;98579.44;5062196;28;20044;-67
2021/10/06 04:48:05;;;;;;;12.30;3.88;;;;;;;11.07;94.40;98574.16;5063317;28;20032;-67
2021/10/06 04:50:30;;;;;;;13.05;3.10;;;;;;;11.05;95.38;98566.28;5063356;28;20035;-67
2021/10/06 04:52:57;;;;;;;12.05;3.10;;;;;;;10.94;94.99;98570.91;5062174;28;20052;-67
2021/10/06 04:55:22;;;;;;;19.58;3.45;;;;;;;10.93;95.61;98574.47;5062083;28;20037;-67
2021/10/06 04:57:48;;;;;;;14.05;3.30;;;;;;;10.79;96.18;98579.16;5063271;28;20103;-67
2021/10/06 05:00:14;;;;;;;15.85;3.45;;;;;;;10.88;95.90;98578.94;5063259;28;20048;-67
2021/10/06 05:02:39;;;;;;;16.70;3.55;;;;;;;10.89;95.64;98570.16;5065634;28;20029;-67
2021/10/06 05:05:05;;;;;;;9.15;2.92;;;;;;;10.86;95.93;98564.97;5066726;28;20052;-67
2021/10/06 05:07:31;;;;;;;11.13;2.85;;;;;;;10.88;96.17;98568.41;5066905;28;20321;-67
2021/10/06 05:09:56;;;;;;;12.35;3.50;;;;;;;10.89;95.95;98570.16;5066868;28;20032;-67
2021/10/06 05:12:21;;;;;;;19.35;3.38;;;;;;;10.88;95.88;98569.28;5066776;28;20025;-67
2021/10/06 05:14:47;;;;;;;13.00;2.67;;;;;;;10.90;95.33;98577.16;5065518;28;20035;-67
2021/10/06 05:17:12;;;;;;;17.65;3.20;;;;;;;10.85;95.08;98574.63;5066711;28;20387;-67
2021/10/06 05:19:38;;;;;;;13.38;3.10;;;;;;;10.82;95.35;98584.34;5066653;28;20031;-67
2021/10/06 05:22:04;;;;;;;12.05;2.75;;;;;;;10.81;95.20;98577.34;5066815;28;20056;-67
2021/10/06 05:24:30;;;;;;;13.27;2.60;;;;;;;10.85;95.29;98568.47;5066553;28;20084;-67
2021/10/06 05:26:55;;;;;;;8.48;2.25;;;;;;;10.79;95.18;98573.91;5066530;28;20020;-67
2021/10/06 05:29:21;;;;;;;16.35;2.42;;;;;;;10.70;95.51;98579.34;5066455;28;20088;-67
2021/10/06 05:31:47;;;;;;;10.90;2.22;;;;;;;10.65;95.77;98578.56;5066452;28;20033;-67
2021/10/06 05:34:13;;;;;;;12.50;2.13;;;;;;;10.65;96.05;98589.09;5066300;28;20029;-67
2021/10/06 05:36:38;;;;;;;14.07;2.30;;;;;;;10.68;96.25;98595.16;5066327;28;20254;-67
2021/10/06 05:39:04;;;;;;;9.88;2.10;;;;;;;10.64;96.71;98600.53;5066298;28;20024;-67
2021/10/06 05:41:30;;;;;;;12.20;4.00;;;;;;;10.72;97.16;98598.59;5066221;28;20334;-67
2021/10/06 05:43:55;;;;;;;8.98;4.03;;;;;;;10.82;97.02;98606.28;5066223;28;20037;-67
2021/10/06 05:46:21;;;;;;;9.88;4.22;;;;;;;10.75;96.41;98614.31;5066133;28;20220;-67
2021/10/06 05:48:47;;;;;;;19.20;5.00;;;;;;;10.70;96.51;98613.56;5064978;28;20089;-67
2021/10/06 05:51:12;;;;;;;15.50;4.72;;;;;;;10.76;96.01;98621.34;5066052;28;20332;-67
2021/10/06 05:53:37;;;;;;;14.10;4.60;;;;;;;10.75;96.12;98622.22;5065926;28;20332;-67
2021/10/06 05:56:03;;;;;;;12.48;4.70;;;;;;;10.79;95.56;98624.75;5065987;28;20340;-67
2021/10/06 05:58:29;;;;;;;17.25;4.90;;;;;;;10.75;95.96;98624.84;5081465;28;20021;-67
2021/10/06 06:00:55;;;;;;;21.27;4.20;;;;;;;10.84;95.52;98629.94;5065909;28;20025;-67
2021/10/06 06:03:21;;;;;;;16.48;3.75;;;;;;;10.79;95.67;98621.28;5065570;28;20025;-67
2021/10/06 06:05:46;;;;;;;12.70;4.25;;;;;;;10.83;95.85;98629.06;5065842;28;20352;-67
2021/10/06 06:08:12;;;;;;;16.65;5.57;;;;;;;10.75;95.91;98624.84;5065710;28;20021;-67
2021/10/06 06:10:37;;;;;;;18.08;4.10;;;;;;;10.79;96.20;98632.66;5065658;28;20021;-67
2021/10/06 06:13:03;;;;;;;14.15;3.90;;;;;;;10.85;95.50;98636.94;5064651;28;20021;-67
2021/10/06 06:15:29;;;;;;;16.15;3.70;;;;;;;10.86;95.97;98643.94;5065486;28;20017;-67
2021/10/06 06:17:55;;;;;;;9.05;3.15;;;;;;;10.82;95.51;98631.72;5065547;28;20029;-67
2021/10/06 06:20:23;;;;;;;23.55;3.63;;;;;;;10.81;95.59;98637.91;5065498;28;20062;-67
2021/10/06 06:22:51;;;;;;;10.48;3.85;;;;;;;10.84;95.22;98635.22;5064293;28;20335;-67
2021/10/06 06:25:16;;;;;;;10.02;3.63;;;;;;;10.88;95.60;98636.88;5065371;28;20013;-67
2021/10/06 06:27:42;;;;;;;13.20;3.33;;;;;;;10.90;95.79;98640.34;5065358;28;20272;-67
2021/10/06 06:30:09;;;;;;;15.65;3.95;;;;;;;10.91;95.61;98647.34;5065326;28;20028;-67
2021/10/06 06:32:34;;;;;;;14.27;4.10;;;;;;;10.90;95.22;98640.34;5065225;28;20220;-67
2021/10/06 06:35:00;;;;;;;14.70;4.22;;;;;;;10.92;95.54;98643.84;5065213;28;20021;-67
2021/10/06 06:37:25;;;;;;;20.08;4.85;;;;;;;10.96;95.68;98661.28;5065233;28;20021;-67
2021/10/06 06:39:51;;;;;;;15.57;4.10;;;;;;;11.01;95.50;98664.69;5065098;28;20044;-67
2021/10/06 06:42:16;;;;;;;15.43;3.25;;;;;;;10.98;95.47;98667.38;5065047;28;20040;-67
2021/10/06 06:44:42;;;;;;;19.58;5.78;;;;;;;10.97;96.20;98668.28;5065003;28;20021;-67
2021/10/06 06:47:07;;;;;;;14.90;3.53;;;;;;;11.06;95.37;98670.72;5064999;28;20020;-67
2021/10/06 06:49:33;;;;;;;18.95;5.03;;;;;;;11.07;95.27;98683.00;5063772;28;20048;-67
2021/10/06 06:51:59;;;;;;;13.05;3.42;;;;;;;11.13;95.00;98682.88;5064888;28;20024;-67
2021/10/06 06:54:25;;;;;;;21.08;4.35;;;;;;;11.19;95.00;98690.66;5064767;28;20021;-67
2021/10/06 06:56:50;;;;;;;20.77;3.95;;;;;;;11.32;94.40;98681.59;5063653;28;20310;-67
2021/10/06 06:59:16;;;;;;;15.60;4.47;;;;;;;11.26;94.65;98689.63;5064739;28;20023;-67
2021/10/06 07:01:42;;;;;;;11.20;3.80;;;;;;;11.28;94.72;98687.84;5064682;28;20021;-67
2021/10/06 07:04:08;;;;;;;13.05;3.58;;;;;;;11.25;94.14;98695.81;5064553;28;20037;-67
2021/10/06 07:06:35;;;;;;;12.95;3.53;;;;;;;11.26;94.82;98700.16;5064607;28;20025;-67
2021/10/06 07:09:04;;;;;;;13.80;3.40;;;;;;;11.37;94.85;98710.47;5064585;28;20047;-67
2021/10/06 07:11:30;;;;;;;10.48;2.75;;;;;;;11.45;93.91;98709.41;5064598;28;20285;-67
2021/10/06 07:13:55;;;;;;;13.75;3.65;;;;;;;11.47;94.08;98707.63;5064476;28;20024;-67
2021/10/06 07:16:21;;;;;;;15.45;3.95;;;;;;;11.48;94.01;98719.88;5063287;28;20261;-67
2021/10/06 07:18:47;;;;;;;11.50;3.13;;;;;;;11.42;93.92;98716.53;5064456;28;20029;-67
2021/10/06 07:21:12;;;;;;;16.25;3.70;;;;;;;11.41;93.10;98722.69;5063247;28;20025;-67
2021/10/06 07:23:38;;;;;;;25.73;3.28;;;;;;;11.39;93.19;98725.34;5064324;28;20025;-67
2021/10/06 07:26:04;;;;;;;13.63;3.40;;;;;;;11.27;94.43;98735.28;5064036;28;20320;-67
2021/10/06 07:28:30;;;;;;;18.58;3.53;;;;;;;11.18;94.89;98741.63;5064244;28;20363;-67
2021/10/06 07:30:56;;;;;;;10.02;2.78;;;;;;;11.27;95.21;98736.16;5064263;28;20134;-67
2021/10/06 07:33:21;;;;;;;15.77;3.05;;;;;;;11.34;95.90;98743.03;5064195;28;20017;-67
2021/10/06 07:35:47;;;;;;;10.18;3.20;;;;;;;11.44;96.25;98744.56;5064079;28;20025;-67
2021/10/06 07:38:12;;;;;;;11.55;2.53;;;;;;;11.43;95.54;98747.25;5064077;28;20027;-67
2021/10/06 07:40:38;;;;;;;10.20;2.42;;;;;;;11.41;95.01;98744.63;5062940;28;20020;-67
2021/10/06 07:43:03;;;;;;;13.05;3.40;;;;;;;11.25;95.81;98748.50;5064075;28;20040;-67
2021/10/06 07:45:29;;;;;;;14.40;2.95;;;;;;;11.23;95.98;98749.44;5064022;28;20028;-67
2021/10/06 07:47:54;;;;;;;14.88;3.28;;;;;;;11.12;96.17;98747.00;5064013;28;20033;-67
2021/10/06 07:50:20;;;;;;;12.10;3.35;;;;;;;11.12;96.97;98747.00;5063932;28;20265;-67
2021/10/06 07:52:45;;;;;;;8.32;2.97;;;;;;;11.24;96.35;98746.78;5063925;28;20024;-67
2021/10/06 07:55:11;;;;;;;12.00;3.22;;;;;;;11.42;96.51;98754.28;5063816;28;20036;-67
2021/10/06 07:57:36;;;;;;;11.23;3.53;;;;;;;11.79;95.63;98750.00;5063885;28;20032;-67
2021/10/06 08:00:04;;;;;;;13.90;3.30;;;;;;;12.00;93.84;98749.50;5063850;28;20024;-67
2021/10/06 08:02:30;;;;;;;11.52;4.47;;;;;;;12.10;93.72;98753.66;5063811;28;20020;-67
2021/10/06 08:04:55;;;;;;;14.02;3.60;;;;;;;12.96;90.93;98744.41;5063565;28;20388;-67
2021/10/06 08:07:21;;;;;;;16.23;4.10;;;;;;;14.50;87.10;98750.34;5063748;28;20059;-67
2021/10/06 08:09:46;;;;;;;11.95;3.42;;;;;;;14.28;85.42;98754.63;5063760;28;20052;-67
2021/10/06 08:12:11;;;;;;;15.07;3.78;;;;;;;14.22;83.99;98749.47;5062563;28;20021;-67
2021/10/06 08:14:37;;;;;;;16.95;4.63;;;;;;;14.13;85.69;98752.41;5063641;28;20065;-67
2021/10/06 08:17:03;;;;;;;11.25;3.75;;;;;;;13.77;85.98;98761.50;5063654;28;20029;-67
2021/10/06 08:19:29;;;;;;;8.13;3.05;;;;;;;13.47;87.03;98751.81;5063680;28;20220;-67
2021/10/06 08:21:54;;;;;;;8.93;2.42;;;;;;;13.36;86.29;98756.53;5063637;28;20029;-67
2021/10/06 08:24:19;;;;;;;11.90;3.25;;;;;;;13.17;86.75;98771.19;5063616;28;20032;-67
2021/10/06 08:26:45;;;;;;;11.35;3.17;;;;;;;13.01;89.51;98774.22;5063572;28;20084;-67
2021/10/06 08:29:10;;;;;;;10.45;2.47;;;;;;;12.66;90.21;98776.03;5063550;28;20021;-67
2021/10/06 08:31:36;;;;;;;14.48;2.70;;;;;;;12.45;89.89;98782.72;5063522;28;20032;-67
2021/10/06 08:34:01;;;;;;;16.77;3.05;;;;;;;12.39;90.43;98787.28;5063418;28;20056;-67
2021/10/06 08:36:27;;;;;;;15.30;2.97;;;;;;;12.40;90.84;98795.16;5064107;28;20071;-67
2021/10/06 08:38:52;;;;;;;17.42;3.67;;;;;;;12.28;92.44;98800.72;5067432;28;20025;-67
2021/10/06 08:41:18;;;;;;;12.30;3.38;;;;;;;12.15;92.85;98799.25;5067406;28;20029;-67
2021/10/06 08:43:44;;;;;;;13.50;4.20;;;;;;;12.22;92.16;98795.56;5067307;28;20315;-67
2021/10/06 08:46:09;;;;;;;11.98;3.30;;;;;;;12.18;91.95;98785.16;5066148;28;20024;-67
2021/10/06 08:48:35;;;;;;;17.75;2.92;;;;;;;12.25;90.96;98787.59;5067281;28;20395;-67
2021/10/06 08:51:00;;;;;;;10.65;3.05;;;;;;;12.32;90.03;98786.56;5066073;28;20056;-67
2021/10/06 08:53:26;;;;;;;15.23;2.92;;;;;;;12.23;91.87;98786.78;5067152;28;20084;-67
2021/10/06 08:55:51;;;;;;;13.75;3.10;;;;;;;12.43;90.34;98789.81;5067025;28;20029;-67
2021/10/06 08:58:17;;;;;;;8.95;3.17;;;;;;;12.92;89.60;98795.56;5067045;28;20244;-67
2021/10/06 09:00:59;;;;;;;12.88;2.50;;;;;;;12.89;88.46;98790.41;5067029;28;20052;-67
2021/10/06 09:03:33;;;;;;;10.23;2.63;;;;;;;13.01;87.29;98794.53;5067272;28;20094;-67
2021/10/06 09:06:06;;;;;;;13.25;3.65;;;;;;;13.25;87.01;98788.56;5067005;28;20013;-67
2021/10/06 09:08:33;;;;;;;13.02;2.40;;;;;;;13.42;87.10;98798.69;5066886;28;20024;-67
2021/10/06 09:11:00;;;;;;;9.50;2.83;;;;;;;13.49;86.86;98798.47;5066867;28;20021;-67
2021/10/06 09:13:28;;;;;;;13.35;2.80;;;;;;;13.61;85.96;98795.47;5066816;28;20224;-67
2021/10/06 09:15:53;;;;;;;11.90;1.92;;;;;;;13.62;85.15;98788.38;5065437;28;20103;-67
2021/10/06 09:18:24;;;;;;;13.60;2.90;;;;;;;13.52;87.00;98805.44;5066690;28;20021;-67
2021/10/06 09:20:51;;;;;;;13.27;2.53;;;;;;;13.60;86.08;98814.03;5066689;28;20032;-67
2021/10/06 09:23:19;;;;;;;11.63;2.35;;;;;;;13.66;85.08;98805.91;5066616;28;20031;-67
2021/10/06 09:26:02;;;;;;;12.43;2.72;;;;;;;13.62;85.42;98798.97;5066591;28;20036;-67
2021/10/06 09:28:33;;;;;;;14.45;2.85;;;;;;;13.40;85.52;98803.13;5066562;28;20021;-67
2021/10/06 09:31:00;;;;;;;9.82;2.40;;;;;;;13.92;84.25;98796.28;5066449;28;20305;-67
2021/10/06 09:33:46;;;;;;;13.27;2.60;;;;;;;14.90;81.88;98793.13;5066437;28;20320;-67
2021/10/06 09:36:21;;;;;;;12.23;2.30;;;;;;;15.14;80.73;98802.91;5065263;28;20096;-67
2021/10/06 09:38:53;;;;;;;11.82;2.78;;;;;;;16.09;78.63;98794.06;5066353;28;20024;-67
2021/10/06 09:41:34;;;;;;;11.32;2.63;;;;;;;16.17;76.30;98784.88;5066274;28;20047;-67
2021/10/06 09:44:11;;;;;;;9.82;2.42;;;;;;;16.40;75.93;98791.94;5066262;28;20193;-67
2021/10/06 09:46:39;;;;;;;16.08;2.20;;;;;;;16.29;76.41;98800.34;5066178;28;20029;-67
2021/10/06 09:49:25;;;;;;;10.60;1.77;;;;;;;16.03;76.72;98796.97;5066051;28;20021;-67
2021/10/06 09:51:52;;;;;;;15.68;2.38;;;;;;;15.68;77.79;98800.94;5066094;28;20251;-67
2021/10/06 09:54:19;;;;;;;16.90;2.88;;;;;;;15.73;76.47;98803.44;5064802;28;20025;-67
2021/10/06 09:56:48;;;;;;;10.30;2.53;;;;;;;15.40;79.08;98800.22;5065981;28;20020;-67
2021/10/06 09:59:15;;;;;;;18.83;2.83;;;;;;;15.35;78.16;98791.53;5064769;28;20027;-67
2021/10/06 10:01:42;;;;;;;22.08;3.20;;;;;;;15.06;80.65;98804.94;5065900;28;20268;-67
2021/10/06 10:04:09;;;;;;;11.95;2.20;;;;;;;15.16;79.97;98795.78;5065635;28;20044;-67
2021/10/06 10:06:36;;;;;;;8.55;1.85;;;;;;;14.95;79.87;98796.50;5065842;28;20216;-67
2021/10/06 10:09:04;;;;;;;17.42;2.90;;;;;;;14.70;79.74;98798.22;5065747;28;20021;-67
2021/10/06 10:11:30;;;;;;;14.77;2.15;;;;;;;14.43;80.49;98801.81;5065771;28;20021;-67
2021/10/06 10:13:56;;;;;;;27.17;2.53;;;;;;;14.29;81.93;98799.56;5065564;28;20023;-67
2021/10/06 10:16:21;;;;;;;14.63;3.15;;;;;;;14.24;83.60;98801.50;5065612;28;20021;-67
2021/10/06 10:18:47;;;;;;;8.98;2.42;;;;;;;14.32;82.55;98811.84;5065532;28;20088;-67
2021/10/06 10:21:15;;;;;;;16.63;3.15;;;;;;;14.26;82.90;98814.69;5065507;28;20204;-67
2021/10/06 10:23:41;;;;;;;6.93;1.98;;;;;;;14.27;82.88;98813.78;5065462;28;20032;-67
2021/10/06 10:26:21;;;;;;;6.30;2.15;;;;;;;14.31;81.26;98849.84;5065465;28;20017;-67
2021/10/06 10:28:46;;;;;;;11.48;2.72;;;;;;;14.65;81.28;98824.88;5065433;28;20267;-67
2021/10/06 10:31:15;;;;;;;11.30;2.90;;;;;;;14.61;80.58;98827.66;5065325;28;20021;-67
2021/10/06 10:33:45;;;;;;;11.77;2.55;;;;;;;14.37;79.58;98828.47;5064121;28;20228;-67
2021/10/06 10:36:29;;;;;;;14.43;2.80;;;;;;;14.39;81.56;98822.19;5065187;28;20205;-67
2021/10/06 10:38:54;;;;;;;15.90;3.05;;;;;;;14.69;79.99;98825.66;5065194;28;20032;-67
2021/10/06 10:41:42;;;;;;;14.05;3.08;;;;;;;15.65;79.57;98832.91;5065160;28;20185;-67
2021/10/06 10:44:09;;;;;;;11.30;2.47;;;;;;;15.73;77.78;98829.97;5065069;28;20033;-67
2021/10/06 10:47:02;;;;;;;15.43;2.90;;;;;;;15.80;78.37;98831.47;5065024;28;20021;-67
2021/10/06 10:49:48;;;;;;;9.43;2.13;;;;;;;15.54;75.95;98829.78;5064692;28;20066;-67
2021/10/06 10:52:16;;;;;;;11.77;2.78;;;;;;;15.25;78.67;98832.53;5063779;28;20224;-67
2021/10/06 10:54:44;;;;;;;9.88;2.75;;;;;;;14.91;79.07;98832.81;5064807;28;20074;-67
2021/10/06 10:57:25;;;;;;;11.48;2.75;;;;;;;14.54;80.24;98832.31;5064795;28;20032;-67
2021/10/06 10:59:53;;;;;;;10.20;2.03;;;;;;;14.42;80.93;98829.16;5063102;28;20021;-67
2021/10/06 11:02:22;;;;;;;14.30;2.75;;;;;;;14.27;81.97;98827.03;5064750;28;20088;-67
2021/10/06 11:05:02;;;;;;;9.70;2.42;;;;;;;14.00;84.39;98827.81;5063318;28;20075;-67
2021/10/06 11:07:28;;;;;;;7.78;1.92;;;;;;;14.11;85.90;98831.88;5064679;28;20052;-67
2021/10/06 11:09:56;;;;;;;14.68;2.67;;;;;;;14.29;83.58;98830.47;5064608;28;20027;-67
2021/10/06 11:12:21;;;;;;;12.68;2.30;;;;;;;14.11;85.45;98831.03;5064559;28;20031;-67
2021/10/06 11:14:49;;;;;;;10.35;2.97;;;;;;;14.27;86.19;98827.03;5064427;28;20024;-67
2021/10/06 11:17:15;;;;;;;14.13;2.65;;;;;;;14.26;85.00;98836.75;5064479;28;20060;-67
2021/10/06 11:19:41;;;;;;;11.80;2.50;;;;;;;14.32;84.57;98830.38;5064414;28;20063;-67
2021/10/06 11:22:25;;;;;;;15.15;2.72;;;;;;;14.45;86.58;98829.06;5064432;28;20017;-67
2021/10/06 11:25:03;;;;;;;13.25;2.67;;;;;;;14.66;87.70;98831.06;5064304;28;20020;-67